Finlayson, Minnesota
Current Conditions -  °F | °C
As of 12:23 AM on Thursday 23 Oct 2014 (Local Time) from K04W Reporting Station
Broken Clouds Broken Clouds  
Wind Chill: 52°   Ceiling: 9000
Heat Index: 52°   Visibility: 10mi
Dew Point: 41°   Wind: 9mph
Humidity: 67%   Direction: 160°SSE
Pressure: 30.01"   Gusts: NA
Location:  46.2°N, 92.92°W
Report Text: K04W 230523Z AUTO 16008KT 10SM SCT080 BKN090 BKN110 11/05 A3001 RMK AO2
Loading
Personal Weather Stations






























Interactive Weather Map
Tropical Storm Tracking
New forecast layout! Learn more

10-Day Weather Forecast

Advertisements
Track Severe Weather on mobile